Time;durP1;ratioP1;P1;durP2;ratioP2;P2;SDS_P1;SDS_P2;PMS_P1;PMS_P2;Temp;Humidity;BMP_temperature;BMP_pressure;BME280_temperature;BME280_humidity;BME280_pressure;Samples;Min_cycle;Max_cycle;Signal;HPM_P1;HPM_P2
2022/04/03 00:02:15;;;;;;;1.60;1.30;;;;;;;10.70;35.16;102017.69;4975501;28;20019;-68
2022/04/03 00:04:40;;;;;;;3.88;1.10;;;;;;;10.66;35.19;102020.69;4974175;28;20395;-68
2022/04/03 00:07:06;;;;;;;3.05;1.08;;;;;;;10.60;34.65;102011.25;4975495;28;20039;-68
2022/04/03 00:09:31;;;;;;;3.53;1.80;;;;;;;10.56;35.31;102012.38;4975489;28;20109;-68
2022/04/03 00:11:57;;;;;;;2.17;1.27;;;;;;;10.53;34.93;102017.94;4975456;28;20460;-67
2022/04/03 00:14:22;;;;;;;4.13;1.38;;;;;;;10.49;35.18;102014.63;4975350;28;20101;-68
2022/04/03 00:16:48;;;;;;;2.55;1.35;;;;;;;10.46;35.18;102013.94;4975268;28;20030;-68
2022/04/03 00:19:13;;;;;;;3.40;1.33;;;;;;;10.42;35.16;102015.09;4974958;28;20519;-68
2022/04/03 00:21:39;;;;;;;2.15;1.15;;;;;;;10.37;34.90;102015.41;4975063;28;20027;-68
2022/04/03 00:24:04;;;;;;;1.25;0.90;;;;;;;10.34;35.57;102018.28;4974102;28;20158;-68
2022/04/03 00:26:30;;;;;;;4.55;1.15;;;;;;;10.34;35.27;102022.75;4975427;28;20029;-67
2022/04/03 00:28:55;;;;;;;1.63;0.88;;;;;;;10.30;35.27;102015.91;4974992;28;20031;-67
2022/04/03 00:31:21;;;;;;;3.20;1.50;;;;;;;10.25;35.25;102023.34;4973813;28;20073;-67
2022/04/03 00:33:46;;;;;;;8.98;1.88;;;;;;;10.22;35.63;102020.84;4975201;28;20025;-67
2022/04/03 00:36:11;;;;;;;1.55;1.20;;;;;;;10.21;35.33;102016.47;4974892;28;20026;-68
2022/04/03 00:38:37;;;;;;;2.13;1.27;;;;;;;10.19;34.61;102021.09;4974796;28;20507;-68
2022/04/03 00:41:03;;;;;;;4.57;1.30;;;;;;;10.15;34.70;102023.09;4972849;28;20027;-68
2022/04/03 00:43:28;;;;;;;3.25;1.40;;;;;;;10.13;35.39;102024.16;4975080;28;20034;-68
2022/04/03 00:45:54;;;;;;;2.17;1.27;;;;;;;10.11;35.32;102032.22;4974799;28;20552;-68
2022/04/03 00:48:20;;;;;;;2.13;1.17;;;;;;;10.07;34.47;102020.00;4974919;28;20374;-68
2022/04/03 00:50:45;;;;;;;3.75;1.20;;;;;;;10.05;35.56;102021.91;4974868;28;20027;-67
2022/04/03 00:53:11;;;;;;;2.15;1.60;;;;;;;10.02;35.14;102023.94;4974634;28;20046;-66
2022/04/03 00:55:41;;;;;;;2.80;1.38;;;;;;;10.00;35.34;102023.13;4974680;28;20523;-67
2022/04/03 00:58:06;;;;;;;2.40;1.25;;;;;;;9.98;34.68;102022.38;4974598;28;20026;-68
2022/04/03 01:00:32;;;;;;;2.78;1.33;;;;;;;9.95;35.07;102026.97;4974511;28;20035;-68
2022/04/03 01:02:57;;;;;;;2.42;1.20;;;;;;;9.91;35.59;102028.13;4974467;28;20042;-68
2022/04/03 01:05:23;;;;;;;1.92;1.73;;;;;;;9.89;35.21;102019.34;4973280;28;20030;-67
2022/04/03 01:07:49;;;;;;;4.93;1.70;;;;;;;9.87;35.00;102029.28;4974634;28;20034;-67
2022/04/03 01:10:14;;;;;;;2.15;1.55;;;;;;;9.84;35.29;102024.13;4974501;28;20381;-67
2022/04/03 01:12:46;;;;;;;3.42;1.67;;;;;;;9.83;34.86;102032.22;4974525;28;20031;-68
2022/04/03 01:15:15;;;;;;;3.17;1.80;;;;;;;9.81;35.44;102036.81;4974507;28;20029;-67
2022/04/03 01:17:41;;;;;;;3.70;1.77;;;;;;;9.76;34.97;102026.41;4974458;28;20031;-66
2022/04/03 01:20:07;;;;;;;3.00;1.48;;;;;;;9.75;35.70;102030.03;4974461;28;20477;-67
2022/04/03 01:22:33;;;;;;;2.97;1.63;;;;;;;9.74;35.72;102033.66;4974589;28;20361;-68
2022/04/03 01:24:59;;;;;;;2.53;1.50;;;;;;;9.71;35.35;102031.19;4974235;28;20022;-68
2022/04/03 01:27:24;;;;;;;4.82;1.90;;;;;;;9.70;35.86;102028.59;4973234;28;20113;-68
2022/04/03 01:29:52;;;;;;;1.88;1.52;;;;;;;9.66;35.18;102025.22;4974506;28;20113;-68
2022/04/03 01:32:17;;;;;;;5.43;1.73;;;;;;;9.63;35.94;102019.22;4974410;28;20023;-67
2022/04/03 01:34:43;;;;;;;4.15;2.17;;;;;;;9.62;35.73;102023.72;4973045;28;20027;-67
2022/04/03 01:37:08;;;;;;;5.35;1.80;;;;;;;9.61;35.16;102027.34;4973097;28;20395;-67
2022/04/03 01:39:33;;;;;;;8.55;1.80;;;;;;;9.58;35.47;102021.31;4974163;28;20023;-68
2022/04/03 01:41:59;;;;;;;4.53;1.75;;;;;;;9.56;35.68;102021.41;4974050;28;20014;-68
2022/04/03 01:44:25;;;;;;;3.72;1.92;;;;;;;9.54;34.98;102014.44;4973191;28;20030;-67
2022/04/03 01:46:50;;;;;;;3.28;1.75;;;;;;;9.52;35.42;102014.50;4974034;28;20052;-68
2022/04/03 01:49:15;;;;;;;2.28;1.40;;;;;;;9.49;35.77;102011.19;4974107;28;20075;-67
2022/04/03 01:51:41;;;;;;;1.75;1.55;;;;;;;9.48;35.38;102015.66;4974441;28;20026;-68
2022/04/03 01:54:06;;;;;;;3.78;1.95;;;;;;;9.42;35.89;102009.81;4977702;28;20037;-68
2022/04/03 01:56:34;;;;;;;2.15;1.05;;;;;;;9.42;35.22;102018.72;4976501;28;20404;-68
2022/04/03 01:59:01;;;;;;;2.70;1.80;;;;;;;9.40;36.03;102020.63;4977728;28;20019;-68
2022/04/03 02:01:26;;;;;;;1.30;1.17;;;;;;;9.38;35.06;102011.81;4977859;28;20107;-67
2022/04/03 02:03:52;;;;;;;2.83;1.83;;;;;;;9.36;36.23;102011.06;4977666;28;20031;-67
2022/04/03 02:06:17;;;;;;;1.63;1.15;;;;;;;9.35;35.15;102014.69;4977731;28;20065;-67
2022/04/03 02:08:43;;;;;;;3.47;1.30;;;;;;;9.34;35.90;102012.97;4977528;28;20030;-68
2022/04/03 02:11:08;;;;;;;2.60;1.50;;;;;;;9.33;36.26;102011.25;4977480;28;20465;-68
2022/04/03 02:13:34;;;;;;;1.92;1.30;;;;;;;9.31;34.92;102014.03;4977399;28;20034;-68
2022/04/03 02:15:59;;;;;;;1.88;1.25;;;;;;;9.29;35.27;102009.72;4977569;28;20023;-68
2022/04/03 02:18:24;;;;;;;4.13;1.27;;;;;;;9.27;35.61;102017.81;4977341;28;20071;-67
2022/04/03 02:20:50;;;;;;;1.83;1.20;;;;;;;9.24;34.91;102011.81;4976194;28;20027;-67
2022/04/03 02:23:16;;;;;;;3.03;0.90;;;;;;;9.23;35.91;102020.78;4977178;28;20031;-67
2022/04/03 02:25:41;;;;;;;2.70;1.67;;;;;;;9.20;36.27;102018.28;4977153;28;20397;-67
2022/04/03 02:28:09;;;;;;;2.30;1.67;;;;;;;9.19;35.27;102024.56;4977225;28;20046;-68
2022/04/03 02:30:34;;;;;;;1.90;1.30;;;;;;;9.16;35.99;102027.41;4977211;28;20019;-67
2022/04/03 02:33:00;;;;;;;2.70;1.48;;;;;;;9.15;35.15;102023.03;4975925;28;20030;-68
2022/04/03 02:35:25;;;;;;;2.53;1.35;;;;;;;9.12;35.89;102028.56;4975823;28;20054;-68
2022/04/03 02:37:51;;;;;;;2.30;1.52;;;;;;;9.10;35.39;102025.13;4977019;28;20030;-68
2022/04/03 02:40:17;;;;;;;2.88;1.13;;;;;;;9.08;36.34;102021.66;4977371;28;20034;-67
2022/04/03 02:42:43;;;;;;;4.13;1.75;;;;;;;9.06;36.44;102028.91;4976613;28;20023;-67
2022/04/03 02:45:12;;;;;;;1.40;1.30;;;;;;;9.03;35.28;102024.63;4976976;28;20127;-67
2022/04/03 02:47:38;;;;;;;2.80;1.27;;;;;;;8.99;35.52;102016.88;4976945;28;20131;-67
2022/04/03 02:50:05;;;;;;;2.08;1.67;;;;;;;8.97;35.34;102018.75;4976812;28;20051;-67
2022/04/03 02:52:30;;;;;;;3.78;1.77;;;;;;;8.92;35.70;102011.03;4976671;28;20481;-68
2022/04/03 02:54:56;;;;;;;3.40;1.33;;;;;;;8.91;35.40;102019.13;4976687;28;20051;-67
2022/04/03 02:57:24;;;;;;;1.20;1.05;;;;;;;8.88;35.41;102019.31;4976556;28;20081;-68
2022/04/03 02:59:49;;;;;;;2.25;1.75;;;;;;;8.85;36.25;102020.34;4976612;28;20400;-67
2022/04/03 03:02:15;;;;;;;2.28;1.63;;;;;;;8.82;35.23;102023.22;4976627;28;20027;-67
2022/04/03 03:04:40;;;;;;;3.17;1.90;;;;;;;8.78;36.37;102025.19;4976116;28;20110;-67
2022/04/03 03:07:07;;;;;;;1.60;1.42;;;;;;;8.76;36.21;102020.88;4976578;28;20448;-67
2022/04/03 03:09:33;;;;;;;2.72;1.30;;;;;;;8.73;36.76;102027.28;4975395;28;20443;-68
2022/04/03 03:11:59;;;;;;;2.20;1.38;;;;;;;8.71;35.52;102026.47;4976449;28;20022;-67
2022/04/03 03:14:26;;;;;;;3.33;1.10;;;;;;;8.70;35.26;102022.09;4976339;28;20031;-67
2022/04/03 03:16:52;;;;;;;3.05;1.33;;;;;;;8.70;36.23;102026.56;4975081;28;20030;-68
2022/04/03 03:19:17;;;;;;;2.78;1.02;;;;;;;8.69;35.81;102036.41;4976220;28;20082;-67
2022/04/03 03:21:43;;;;;;;3.75;1.55;;;;;;;8.68;36.83;102031.16;4975125;28;20046;-67
2022/04/03 03:24:09;;;;;;;1.98;1.20;;;;;;;8.66;35.74;102025.88;4975979;28;20366;-68
2022/04/03 03:26:34;;;;;;;3.17;1.40;;;;;;;8.63;35.73;102026.06;4976270;28;20044;-68
2022/04/03 03:28:59;;;;;;;2.13;1.48;;;;;;;8.63;36.29;102025.19;4976078;28;20069;-67
2022/04/03 03:31:25;;;;;;;3.13;1.48;;;;;;;8.60;36.70;102031.56;4976029;28;20027;-67
2022/04/03 03:33:50;;;;;;;1.67;1.00;;;;;;;8.58;36.18;102033.47;4976058;28;20031;-67
2022/04/03 03:36:16;;;;;;;2.55;1.27;;;;;;;8.58;35.70;102035.28;4975945;28;20494;-67
2022/04/03 03:38:41;;;;;;;1.73;1.40;;;;;;;8.57;35.87;102037.06;4975876;28;20038;-67
2022/04/03 03:41:07;;;;;;;4.00;1.60;;;;;;;8.56;36.36;102030.03;4975816;28;20022;-67
2022/04/03 03:43:32;;;;;;;3.28;1.77;;;;;;;8.56;36.96;102035.38;4975670;28;20062;-67
2022/04/03 03:45:58;;;;;;;3.28;1.15;;;;;;;8.55;35.95;102032.78;4975758;28;20034;-68
2022/04/03 03:48:24;;;;;;;2.17;1.20;;;;;;;8.54;36.57;102044.44;4974579;28;20034;-67
2022/04/03 03:50:49;;;;;;;2.90;0.82;;;;;;;8.53;36.18;102040.88;4975871;28;20035;-67
2022/04/03 03:53:15;;;;;;;4.10;1.20;;;;;;;8.53;36.59;102032.00;4975725;28;20030;-68
2022/04/03 03:55:40;;;;;;;1.50;1.20;;;;;;;8.50;35.89;102041.06;4974237;28;20081;-68
2022/04/03 03:58:05;;;;;;;2.53;1.25;;;;;;;8.50;35.73;102040.19;4975405;28;20047;-68
2022/04/03 04:00:31;;;;;;;2.13;1.30;;;;;;;8.50;36.20;102045.53;4975445;28;20396;-67
2022/04/03 04:02:56;;;;;;;3.60;1.40;;;;;;;8.49;35.63;102044.66;4975497;28;20039;-68
2022/04/03 04:05:22;;;;;;;5.38;1.52;;;;;;;8.49;36.97;102043.78;4974172;28;20037;-67
2022/04/03 04:07:47;;;;;;;2.60;1.33;;;;;;;8.46;35.87;102044.84;4975264;28;20027;-67
2022/04/03 04:10:14;;;;;;;3.95;1.25;;;;;;;8.46;35.28;102054.69;4975209;28;20027;-67
2022/04/03 04:12:40;;;;;;;1.95;1.30;;;;;;;8.44;37.07;102057.41;4975617;28;20049;-67
2022/04/03 04:15:07;;;;;;;4.40;1.30;;;;;;;8.42;36.26;102058.44;4974429;28;20029;-66
2022/04/03 04:17:46;;;;;;;3.50;1.58;;;;;;;8.41;37.04;102056.72;4974014;28;20022;-66
2022/04/03 04:20:13;;;;;;;4.80;1.77;;;;;;;8.39;36.07;102051.47;4975230;28;20500;-67
2022/04/03 04:22:40;;;;;;;7.32;1.92;;;;;;;8.39;35.96;102061.28;4957508;28;20081;-65
2022/04/03 04:25:06;;;;;;;2.17;1.25;;;;;;;8.37;35.70;102056.06;4975358;28;20035;-66
2022/04/03 04:27:32;;;;;;;2.45;1.60;;;;;;;8.36;35.36;102056.13;4975286;28;20439;-67
2022/04/03 04:29:57;;;;;;;1.38;1.10;;;;;;;8.34;37.06;102056.22;4974937;28;20165;-66
2022/04/03 04:32:24;;;;;;;5.50;1.35;;;;;;;8.33;36.35;102062.50;4975670;28;20027;-66
2022/04/03 04:34:50;;;;;;;2.35;1.20;;;;;;;8.32;36.67;102062.59;4973713;28;20488;-66
2022/04/03 04:37:16;;;;;;;5.25;1.42;;;;;;;8.31;36.03;102068.88;4975564;28;20034;-67
2022/04/03 04:39:42;;;;;;;3.83;2.90;;;;;;;8.29;36.96;102063.59;4975010;28;20038;-67
2022/04/03 04:42:07;;;;;;;1.90;1.30;;;;;;;8.29;36.41;102070.75;4974824;28;20038;-66
2022/04/03 04:44:33;;;;;;;4.75;1.80;;;;;;;8.27;36.72;102070.81;4973648;28;20066;-67
2022/04/03 04:46:58;;;;;;;6.07;2.03;;;;;;;8.26;35.68;102069.09;4974723;28;20030;-67
2022/04/03 04:49:24;;;;;;;1.65;1.00;;;;;;;8.28;36.52;102077.91;4974545;28;20047;-67
2022/04/03 04:51:49;;;;;;;2.40;1.77;;;;;;;8.27;36.51;102076.16;4974846;28;20030;-67
2022/04/03 04:54:14;;;;;;;2.78;1.52;;;;;;;8.24;36.08;102076.28;4974745;28;20130;-67
2022/04/03 04:56:40;;;;;;;2.40;1.42;;;;;;;8.24;36.79;102076.28;4973699;28;20062;-67
2022/04/03 04:59:05;;;;;;;3.15;1.45;;;;;;;8.24;37.26;102086.97;4974706;28;20031;-66
2022/04/03 05:01:31;;;;;;;1.60;1.20;;;;;;;8.23;36.60;102087.94;4974494;28;20164;-67
2022/04/03 05:03:56;;;;;;;4.85;1.63;;;;;;;8.23;37.18;102085.28;4974525;28;20106;-67
2022/04/03 05:06:23;;;;;;;2.75;1.80;;;;;;;8.23;36.88;102097.75;4974490;28;20034;-67
2022/04/03 05:08:49;;;;;;;3.35;0.93;;;;;;;8.21;35.76;102081.81;4973413;28;20023;-67
2022/04/03 05:11:15;;;;;;;5.80;1.65;;;;;;;8.20;36.67;102093.44;4971323;28;20066;-67
2022/04/03 05:13:42;;;;;;;5.57;1.50;;;;;;;8.20;36.19;102093.44;4973550;28;20080;-67
2022/04/03 05:16:07;;;;;;;1.95;1.20;;;;;;;8.18;36.55;102095.31;4974662;28;20030;-68
2022/04/03 05:18:35;;;;;;;4.97;1.40;;;;;;;8.20;35.81;102096.09;4974551;28;20034;-67
2022/04/03 05:21:00;;;;;;;6.78;1.42;;;;;;;8.22;37.24;102104.88;4973038;28;20034;-67
2022/04/03 05:23:25;;;;;;;2.65;1.48;;;;;;;8.22;37.43;102107.56;4973323;28;20035;-67
2022/04/03 05:25:51;;;;;;;3.45;1.42;;;;;;;8.23;35.67;102106.63;4974863;28;20043;-67
2022/04/03 05:28:16;;;;;;;2.60;1.83;;;;;;;8.26;36.60;102106.47;4978334;28;20078;-69
2022/04/03 05:30:41;;;;;;;2.30;1.63;;;;;;;8.29;36.25;102108.97;4977021;28;20506;-67
2022/04/03 05:33:07;;;;;;;1.98;1.48;;;;;;;8.34;36.24;102108.75;4978191;28;20034;-66
2022/04/03 05:35:32;;;;;;;4.55;1.80;;;;;;;8.40;36.31;102119.09;4978337;28;20041;-67
2022/04/03 05:37:57;;;;;;;2.75;1.30;;;;;;;8.45;36.76;102117.88;4978157;28;20170;-67
2022/04/03 05:40:23;;;;;;;4.97;1.65;;;;;;;8.51;36.89;102112.22;4978095;28;20033;-66
2022/04/03 05:42:48;;;;;;;3.90;2.17;;;;;;;8.58;36.12;102124.25;4977759;28;20031;-66
2022/04/03 05:45:14;;;;;;;1.85;1.60;;;;;;;8.68;36.53;102127.31;4978269;28;20125;-67
2022/04/03 05:47:40;;;;;;;2.03;1.52;;;;;;;8.75;35.93;102120.66;4978214;28;20423;-66
2022/04/03 05:50:06;;;;;;;2.90;1.60;;;;;;;8.86;36.28;102130.75;4976993;28;20031;-67
2022/04/03 05:52:39;;;;;;;4.30;1.52;;;;;;;8.96;36.86;102135.47;4977721;28;20038;-68
2022/04/03 05:55:05;;;;;;;;;;;;;;;9.07;35.41;102134.88;4978338;28;20113;-68
2022/04/03 05:57:30;;;;;;;3.60;1.52;;;;;;;9.18;35.84;102138.66;4977727;28;19949;-68
2022/04/03 05:59:55;;;;;;;3.17;1.75;;;;;;;9.30;36.29;102137.06;4977804;28;20070;-68
2022/04/03 06:02:21;;;;;;;4.55;1.75;;;;;;;9.46;36.45;102140.59;4976396;28;20126;-68
2022/04/03 06:04:46;;;;;;;1.73;1.60;;;;;;;9.62;36.58;102133.41;4976453;28;20035;-68
2022/04/03 06:07:11;;;;;;;5.05;1.88;;;;;;;9.79;36.03;102138.59;4976337;28;20047;-68
2022/04/03 06:09:37;;;;;;;2.55;1.52;;;;;;;9.98;35.82;102137.47;4977360;28;20034;-69
2022/04/03 06:12:03;;;;;;;4.78;1.98;;;;;;;10.14;35.82;102138.28;4977456;28;20034;-69
2022/04/03 06:14:28;;;;;;;3.15;1.85;;;;;;;10.30;35.35;102139.09;4977742;28;20033;-68
2022/04/03 06:16:53;;;;;;;3.35;1.55;;;;;;;10.43;35.20;102130.19;4977436;28;20033;-68
2022/04/03 06:19:19;;;;;;;2.47;1.60;;;;;;;10.58;35.41;102140.91;4977414;28;20035;-68
2022/04/03 06:21:44;;;;;;;2.65;1.65;;;;;;;10.71;35.01;102134.66;4977271;28;20027;-68
2022/04/03 06:24:09;;;;;;;6.20;2.20;;;;;;;10.82;35.44;102132.16;4977115;28;20034;-68
2022/04/03 06:26:35;;;;;;;3.85;2.10;;;;;;;10.96;35.15;102137.47;4975874;28;20151;-68
2022/04/03 06:29:00;;;;;;;2.10;1.60;;;;;;;11.07;35.66;102137.63;4977437;28;20410;-68
2022/04/03 06:31:26;;;;;;;4.60;1.50;;;;;;;11.20;35.73;102136.81;4977154;28;20031;-68
2022/04/03 06:33:51;;;;;;;2.88;1.85;;;;;;;11.34;34.90;102140.31;4977048;28;20066;-68
2022/04/03 06:36:16;;;;;;;3.22;1.75;;;;;;;11.45;35.21;102134.22;4977159;28;20062;-68
2022/04/03 06:38:42;;;;;;;7.18;2.03;;;;;;;11.60;35.18;102147.50;4976006;28;20027;-65
2022/04/03 06:41:08;;;;;;;3.97;2.00;;;;;;;11.73;35.18;102142.16;4977003;28;20027;-66
2022/04/03 06:43:34;;;;;;;7.55;2.42;;;;;;;11.85;34.93;102146.72;4976978;28;20041;-66
2022/04/03 06:45:59;;;;;;;6.00;1.90;;;;;;;12.00;34.91;102144.81;4977003;28;20026;-66
2022/04/03 06:48:26;;;;;;;7.72;2.50;;;;;;;12.12;34.55;102144.78;4975665;28;20034;-66
2022/04/03 06:50:51;;;;;;;6.32;2.45;;;;;;;12.27;34.92;102151.78;4976899;28;20038;-66
2022/04/03 06:53:17;;;;;;;4.50;2.08;;;;;;;12.42;35.14;102149.00;4976998;28;20029;-66
2022/04/03 06:55:42;;;;;;;5.60;2.40;;;;;;;12.56;34.89;102146.19;4976434;28;20144;-67
2022/04/03 06:58:08;;;;;;;5.30;2.40;;;;;;;12.71;34.67;102142.38;4976693;28;20035;-67
2022/04/03 07:00:34;;;;;;;8.80;2.00;;;;;;;12.89;34.04;102145.56;4976591;28;20065;-67
2022/04/03 07:02:59;;;;;;;3.95;1.90;;;;;;;13.04;34.60;102139.91;4975393;28;20476;-67
2022/04/03 07:05:25;;;;;;;2.63;1.88;;;;;;;13.20;34.08;102140.56;4975262;28;20037;-67
2022/04/03 07:07:51;;;;;;;3.00;2.47;;;;;;;13.36;33.92;102151.91;4976639;28;20031;-67
2022/04/03 07:10:17;;;;;;;3.58;2.38;;;;;;;13.53;34.01;102147.06;4976544;28;20029;-67
2022/04/03 07:12:42;;;;;;;7.35;1.73;;;;;;;13.72;33.12;102142.00;4976500;28;20109;-67
2022/04/03 07:15:11;;;;;;;3.35;1.73;;;;;;;13.88;34.20;102145.22;4976308;28;20472;-67
2022/04/03 07:17:38;;;;;;;2.13;1.92;;;;;;;14.06;33.50;102141.13;4976670;28;20034;-66
2022/04/03 07:20:03;;;;;;;2.88;1.80;;;;;;;14.24;33.35;102142.38;4976345;28;20054;-67
2022/04/03 07:22:29;;;;;;;3.28;1.67;;;;;;;14.42;33.70;102137.41;4976064;28;20062;-67
2022/04/03 07:24:54;;;;;;;4.60;2.10;;;;;;;14.60;33.82;102140.47;4976157;28;20038;-67
2022/04/03 07:27:19;;;;;;;2.55;1.63;;;;;;;14.78;32.61;102139.84;4976166;28;20085;-67
2022/04/03 07:29:45;;;;;;;2.25;2.03;;;;;;;14.97;32.94;102133.81;4976013;28;20031;-67
2022/04/03 07:32:10;;;;;;;1.45;1.30;;;;;;;15.14;32.93;102138.69;4974865;28;20071;-66
2022/04/03 07:34:36;;;;;;;1.95;1.50;;;;;;;15.30;33.69;102139.13;4975960;28;20030;-67
2022/04/03 07:37:02;;;;;;;4.93;1.70;;;;;;;15.48;33.00;102143.03;4975954;28;20031;-66
2022/04/03 07:39:27;;;;;;;2.40;1.50;;;;;;;15.65;31.95;102137.06;4974755;28;20045;-68
2022/04/03 07:41:53;;;;;;;4.45;1.88;;;;;;;15.71;32.17;102139.25;4975804;28;20034;-67
2022/04/03 07:44:18;;;;;;;1.98;1.17;;;;;;;15.91;33.23;102137.56;4975669;28;20062;-67
2022/04/03 07:46:44;;;;;;;3.63;1.75;;;;;;;16.11;31.34;102141.22;4975808;28;20030;-67
2022/04/03 07:49:10;;;;;;;6.53;1.80;;;;;;;16.33;32.06;102140.22;4974365;28;20184;-67
2022/04/03 07:51:36;;;;;;;2.60;1.83;;;;;;;16.52;31.59;102138.47;4975508;28;20030;-67
2022/04/03 07:54:02;;;;;;;3.15;1.75;;;;;;;16.73;31.84;102141.13;4958300;28;20031;-67
2022/04/03 07:56:27;;;;;;;4.10;1.65;;;;;;;16.92;32.34;102146.59;4975184;28;20050;-67
2022/04/03 07:58:52;;;;;;;3.45;1.80;;;;;;;17.08;31.12;102140.69;4975596;28;20026;-67
2022/04/03 08:01:18;;;;;;;3.22;1.90;;;;;;;17.26;30.97;102149.81;4975364;28;20045;-67
2022/04/03 08:03:43;;;;;;;2.00;1.33;;;;;;;17.44;30.60;102151.72;4974537;28;20029;-67
2022/04/03 08:06:09;;;;;;;2.00;1.60;;;;;;;17.60;30.88;102151.19;4975372;28;20110;-67
2022/04/03 08:08:35;;;;;;;9.27;1.98;;;;;;;17.76;31.08;102154.16;4975311;28;20049;-67
2022/04/03 08:11:00;;;;;;;2.88;1.80;;;;;;;17.92;30.57;102157.16;4975302;28;20484;-67
2022/04/03 08:13:25;;;;;;;1.45;1.33;;;;;;;18.08;30.03;102153.88;4975500;28;20034;-67
2022/04/03 08:15:51;;;;;;;3.15;1.50;;;;;;;18.24;30.57;102158.69;4975267;28;20054;-67
2022/04/03 08:18:17;;;;;;;2.13;1.75;;;;;;;18.39;30.83;102159.94;4975345;28;20034;-67
2022/04/03 08:20:43;;;;;;;2.15;1.35;;;;;;;18.52;29.81;102158.63;4975538;28;20085;-67
2022/04/03 08:23:09;;;;;;;2.85;1.65;;;;;;;18.69;30.78;102158.84;4975281;28;20023;-67
2022/04/03 08:25:35;;;;;;;1.38;1.27;;;;;;;18.82;29.74;102152.06;4975083;28;20023;-67
2022/04/03 08:28:01;;;;;;;4.00;1.50;;;;;;;18.97;29.98;102150.56;4975264;28;20439;-67
2022/04/03 08:30:32;;;;;;;1.95;1.02;;;;;;;19.13;29.19;102153.47;4975111;28;20031;-67
2022/04/03 08:32:59;;;;;;;3.60;1.63;;;;;;;19.28;29.36;102147.53;4974905;28;20023;-67
2022/04/03 08:35:26;;;;;;;3.05;1.40;;;;;;;19.43;29.34;102149.59;4975238;28;20572;-66
2022/04/03 08:37:53;;;;;;;4.28;1.15;;;;;;;19.58;29.10;102155.34;4975311;28;20037;-67
2022/04/03 08:40:20;;;;;;;1.58;1.05;;;;;;;19.69;28.87;102153.25;4975004;28;20106;-66
2022/04/03 08:42:45;;;;;;;4.93;1.27;;;;;;;19.84;28.83;102148.13;4974607;28;20115;-67
2022/04/03 08:45:11;;;;;;;2.28;1.30;;;;;;;19.98;28.83;102149.41;4957411;28;20106;-66
2022/04/03 08:47:53;;;;;;;1.73;1.10;;;;;;;20.13;28.74;102143.22;4973369;28;20110;-66
2022/04/03 08:50:23;;;;;;;2.80;1.10;;;;;;;20.27;28.59;102145.41;4973758;28;20058;-67
2022/04/03 08:52:51;;;;;;;1.77;1.38;;;;;;;20.43;27.85;102151.97;4974804;28;20034;-66
2022/04/03 08:55:17;;;;;;;4.22;1.88;;;;;;;20.56;28.56;102152.38;4974568;28;20515;-66
2022/04/03 08:57:42;;;;;;;6.60;1.45;;;;;;;20.72;27.54;102149.75;4974790;28;20038;-66
2022/04/03 09:00:08;;;;;;;1.80;1.63;;;;;;;20.84;28.16;102148.44;4974557;28;20101;-67
2022/04/03 09:02:34;;;;;;;1.92;1.10;;;;;;;20.97;27.74;102154.28;4974426;28;20034;-67
2022/04/03 09:04:59;;;;;;;1.92;1.13;;;;;;;21.10;27.87;102142.97;4974603;28;20486;-66
2022/04/03 09:07:25;;;;;;;2.28;1.00;;;;;;;21.21;26.99;102146.25;4974764;28;20019;-66
2022/04/03 09:10:08;;;;;;;0.93;0.82;;;;;;;21.31;26.37;102152.38;4974375;28;20088;-66
2022/04/03 09:12:43;;;;;;;1.23;1.08;;;;;;;21.43;26.98;102150.19;4974589;28;20078;-66
2022/04/03 09:15:21;;;;;;;1.85;1.10;;;;;;;21.50;26.65;102151.22;4974466;28;20027;-67
2022/04/03 09:17:52;;;;;;;3.72;0.95;;;;;;;21.66;26.52;102153.13;4974383;28;20057;-67
2022/04/03 09:20:26;;;;;;;1.65;1.05;;;;;;;21.78;26.34;102157.22;4974528;28;20063;-65
2022/04/03 09:22:52;;;;;;;0.98;0.85;;;;;;;21.91;26.90;102161.22;4974444;28;20027;-66
2022/04/03 09:25:24;;;;;;;4.78;1.02;;;;;;;21.85;26.40;102161.84;4974464;28;20082;-65
2022/04/03 09:27:52;;;;;;;2.80;1.17;;;;;;;21.77;26.67;102163.72;4973201;28;20022;-67
2022/04/03 09:30:19;;;;;;;1.30;0.80;;;;;;;21.66;26.44;102162.19;4974384;28;20041;-67
2022/04/03 09:32:56;;;;;;;4.22;1.02;;;;;;;21.77;25.89;102155.53;4974388;28;20034;-67
2022/04/03 09:35:29;;;;;;;1.10;1.00;;;;;;;21.61;26.68;102155.53;4974683;28;20105;-67
2022/04/03 09:38:12;;;;;;;3.88;0.70;;;;;;;21.76;25.91;102156.53;4974429;28;20062;-66
2022/04/03 09:40:42;;;;;;;1.45;1.05;;;;;;;21.99;25.61;102152.16;4974393;28;20027;-67
2022/04/03 09:43:19;;;;;;;1.30;0.85;;;;;;;22.19;25.13;102153.50;4974278;28;20488;-66
2022/04/03 09:45:46;;;;;;;1.80;1.23;;;;;;;22.54;25.27;102153.09;4974162;28;20424;-66
2022/04/03 09:48:41;;;;;;;1.60;0.82;;;;;;;23.28;25.47;102140.84;4974336;28;20097;-67
2022/04/03 09:51:07;;;;;;;3.65;1.38;;;;;;;24.23;24.15;102145.78;4972525;28;20043;-67
2022/04/03 09:54:02;;;;;;;1.73;0.93;;;;;;;26.45;22.61;102143.13;4973999;28;20018;-67
2022/04/03 09:56:37;;;;;;;0.85;0.80;;;;;;;27.87;21.10;102137.59;4972469;28;20098;-67
2022/04/03 09:59:03;;;;;;;1.55;1.42;;;;;;;27.19;21.90;102131.28;4974331;28;20023;-67
2022/04/03 10:01:38;;;;;;;2.88;0.82;;;;;;;26.73;22.70;102130.19;4975052;28;20081;-66
2022/04/03 10:04:05;;;;;;;1.38;0.85;;;;;;;26.42;22.69;102133.41;4974247;28;20027;-67
2022/04/03 10:06:32;;;;;;;2.13;0.80;;;;;;;26.29;22.58;102125.06;4974162;28;20070;-67
2022/04/03 10:08:58;;;;;;;2.35;0.93;;;;;;;26.42;22.35;102127.03;4973824;28;20441;-67
2022/04/03 10:11:24;;;;;;;0.95;0.65;;;;;;;26.18;22.54;102130.25;4974162;28;20019;-67
2022/04/03 10:13:50;;;;;;;1.55;1.10;;;;;;;25.48;23.02;102124.72;4975780;28;20058;-67
2022/04/03 10:16:16;;;;;;;0.70;0.63;;;;;;;25.05;23.17;102127.38;4977336;28;20457;-67
2022/04/03 10:18:46;;;;;;;2.65;0.90;;;;;;;24.32;23.31;102116.41;4976507;28;20030;-67
2022/04/03 10:21:36;;;;;;;2.25;1.00;;;;;;;25.02;22.41;102119.53;4977253;28;20026;-67
2022/04/03 10:24:10;;;;;;;2.00;0.82;;;;;;;25.71;22.45;102106.19;4976234;28;20112;-67
2022/04/03 10:26:36;;;;;;;0.75;0.70;;;;;;;26.27;21.91;102107.09;4977419;28;20027;-66
2022/04/03 10:29:06;;;;;;;0.90;0.63;;;;;;;26.80;21.84;102098.09;4976076;28;20452;-67
2022/04/03 10:31:32;;;;;;;2.17;0.63;;;;;;;27.18;21.87;102096.56;4976167;28;20090;-66
2022/04/03 10:33:57;;;;;;;1.30;0.90;;;;;;;27.51;21.24;102098.56;4975810;28;20019;-66
2022/04/03 10:36:27;;;;;;;2.13;0.98;;;;;;;27.77;21.33;102090.34;4977177;28;20058;-66
2022/04/03 10:39:01;;;;;;;0.90;0.73;;;;;;;28.10;20.86;102096.72;4977056;28;20026;-67
2022/04/03 10:41:30;;;;;;;0.80;0.68;;;;;;;28.42;21.29;102094.13;4976966;28;20022;-67
2022/04/03 10:44:18;;;;;;;1.60;0.93;;;;;;;28.77;20.26;102085.34;4976822;28;20027;-67
2022/04/03 10:47:02;;;;;;;1.20;0.50;;;;;;;27.63;21.39;102086.75;4977022;28;20030;-67
2022/04/03 10:49:41;;;;;;;1.00;0.57;;;;;;;26.56;22.08;102087.59;4976957;28;20030;-66
2022/04/03 10:52:09;;;;;;;0.90;0.50;;;;;;;25.80;21.84;102094.00;4977067;28;20016;-68
2022/04/03 10:54:43;;;;;;;0.40;0.40;;;;;;;25.98;21.36;102086.97;4959246;28;20046;-67
2022/04/03 10:57:35;;;;;;;3.15;0.57;;;;;;;25.23;21.77;102080.31;4976960;28;20383;-66
2022/04/03 11:00:56;;;;;;;0.63;0.50;;;;;;;25.82;21.32;102070.81;4976617;28;20023;-67
2022/04/03 11:03:27;;;;;;;1.23;0.55;;;;;;;25.05;21.68;102069.78;4959982;28;20126;-67
2022/04/03 11:05:53;;;;;;;0.75;0.75;;;;;;;25.92;21.31;102078.69;4976699;28;20038;-67
2022/04/03 11:08:42;;;;;;;1.73;0.50;;;;;;;26.60;20.66;102064.16;4976465;28;20377;-67
2022/04/03 11:11:08;;;;;;;1.10;0.85;;;;;;;26.85;20.37;102061.75;4976534;28;20122;-67
2022/04/03 11:13:34;;;;;;;3.60;0.75;;;;;;;27.33;20.71;102066.09;4976639;28;20031;-67
2022/04/03 11:16:06;;;;;;;0.60;0.60;;;;;;;27.77;20.63;102054.53;4976624;28;20053;-67
2022/04/03 11:18:47;;;;;;;2.15;0.40;;;;;;;28.18;19.79;102049.63;4976497;28;20046;-67
2022/04/03 11:21:22;;;;;;;1.13;0.63;;;;;;;28.26;20.42;102056.81;4976084;28;20018;-67
2022/04/03 11:23:55;;;;;;;1.23;0.90;;;;;;;27.49;20.21;102051.13;4975946;28;20043;-67
2022/04/03 11:26:22;;;;;;;1.15;0.60;;;;;;;26.94;20.73;102042.09;4974960;28;20144;-67
2022/04/03 11:28:48;;;;;;;1.40;0.90;;;;;;;26.79;20.83;102049.66;4976224;28;20400;-67
2022/04/03 11:31:14;;;;;;;0.88;0.70;;;;;;;27.50;20.33;102050.09;4976024;28;20023;-67